createdAt,value
2017-09-15T00:00:13.162Z,18.40
2017-09-15T00:02:41.750Z,17.40
2017-09-15T00:05:13.116Z,22.50
2017-09-15T00:07:40.928Z,21.67
2017-09-15T00:10:10.552Z,19.17
2017-09-15T00:12:38.678Z,15.10
2017-09-15T00:15:07.616Z,14.00
2017-09-15T00:17:36.086Z,16.17
2017-09-15T00:20:05.378Z,15.87
2017-09-15T00:22:33.472Z,16.47
2017-09-15T00:25:04.810Z,15.80
2017-09-15T00:27:34.854Z,16.10
2017-09-15T00:30:05.539Z,15.17
2017-09-15T00:32:34.971Z,14.17
2017-09-15T00:35:05.228Z,14.50
2017-09-15T00:37:33.370Z,10.50
2017-09-15T00:40:05.366Z,18.90
2017-09-15T00:42:34.411Z,18.67
2017-09-15T00:45:05.130Z,14.70
2017-09-15T00:47:33.174Z,10.60
2017-09-15T00:50:02.247Z,11.97
2017-09-15T00:52:31.163Z,15.80
2017-09-15T00:54:59.742Z,11.00
2017-09-15T00:57:28.578Z,8.87
2017-09-15T00:59:56.962Z,12.13
2017-09-15T01:02:25.539Z,10.13
2017-09-15T01:04:53.322Z,10.60
2017-09-15T01:07:21.039Z,9.37
2017-09-15T01:09:49.849Z,8.53
2017-09-15T01:12:19.202Z,9.00
2017-09-15T01:14:48.212Z,7.83
2017-09-15T01:17:18.054Z,7.83
2017-09-15T01:19:45.933Z,11.80
2017-09-15T01:22:19.286Z,10.33
2017-09-15T01:24:48.200Z,9.17
2017-09-15T01:27:17.420Z,7.70
2017-09-15T01:29:46.068Z,8.67
2017-09-15T01:32:14.818Z,4.77
2017-09-15T01:34:44.119Z,3.80
2017-09-15T01:37:12.807Z,8.93
2017-09-15T01:39:41.827Z,3.03
2017-09-15T01:42:09.743Z,7.20
2017-09-15T01:44:37.873Z,5.20
2017-09-15T01:47:09.709Z,5.37
2017-09-15T01:49:37.452Z,8.07
2017-09-15T01:52:05.550Z,6.53
2017-09-15T01:54:34.718Z,5.50
2017-09-15T01:57:02.851Z,4.93
2017-09-15T02:02:05.038Z,8.97
2017-09-15T02:04:32.814Z,5.37
2017-09-15T02:07:02.222Z,5.60
2017-09-15T02:09:31.476Z,6.07
2017-09-15T02:12:01.626Z,5.03
2017-09-15T02:14:30.508Z,9.67
2017-09-15T02:16:59.143Z,6.33
2017-09-15T02:19:26.953Z,10.30
2017-09-15T02:21:55.383Z,8.03
2017-09-15T02:26:57.387Z,7.00
2017-09-15T02:29:25.086Z,9.13
2017-09-15T02:31:52.901Z,9.10
2017-09-15T02:34:21.024Z,4.23
2017-09-15T02:36:49.925Z,10.33
2017-09-15T02:39:17.807Z,7.23
2017-09-15T02:41:46.047Z,8.47
2017-09-15T02:44:15.069Z,7.60
2017-09-15T02:46:45.223Z,8.13
2017-09-15T02:49:14.041Z,6.70
2017-09-15T02:51:42.795Z,11.53
2017-09-15T02:54:10.490Z,8.47
2017-09-15T02:56:39.093Z,8.33
2017-09-15T02:59:07.921Z,5.90
2017-09-15T03:01:36.521Z,9.63
2017-09-15T03:04:04.606Z,7.50
2017-09-15T03:06:34.903Z,8.63
2017-09-15T03:09:02.635Z,11.80
2017-09-15T03:11:35.177Z,5.50
2017-09-15T03:14:05.286Z,4.50
2017-09-15T03:16:33.899Z,12.10
2017-09-15T03:19:01.673Z,7.30
2017-09-15T03:21:31.433Z,4.80
2017-09-15T03:24:00.994Z,8.80
2017-09-15T03:26:29.852Z,7.93
2017-09-15T03:28:58.464Z,8.70
2017-09-15T03:31:29.726Z,6.17
2017-09-15T03:33:59.364Z,6.67
2017-09-15T03:36:29.579Z,12.53
2017-09-15T03:41:31.869Z,7.67
2017-09-15T03:44:01.636Z,8.87
2017-09-15T03:46:31.373Z,13.83
2017-09-15T03:49:00.151Z,11.77
2017-09-15T03:51:31.422Z,8.70
2017-09-15T03:54:01.365Z,15.50
2017-09-15T03:56:30.368Z,9.90
2017-09-15T04:01:31.808Z,16.17
2017-09-15T04:04:00.069Z,12.87
2017-09-15T04:06:30.324Z,13.50
2017-09-15T04:08:58.046Z,9.03
2017-09-15T04:11:26.133Z,9.07
2017-09-15T04:13:54.871Z,5.80
2017-09-15T04:16:23.385Z,3.60
2017-09-15T04:18:52.354Z,14.13
2017-09-15T04:21:21.200Z,11.77
2017-09-15T04:23:50.028Z,12.73
2017-09-15T04:26:18.165Z,11.83
2017-09-15T04:28:47.707Z,12.53
2017-09-15T04:31:15.485Z,6.43
2017-09-15T04:33:43.236Z,5.70
2017-09-15T04:36:11.724Z,8.30
2017-09-15T04:38:40.661Z,11.73
2017-09-15T04:41:08.809Z,7.03
2017-09-15T04:43:37.644Z,10.53
2017-09-15T04:46:06.556Z,10.60
2017-09-15T04:48:35.157Z,13.43
2017-09-15T04:51:04.486Z,13.73
2017-09-15T04:56:07.848Z,7.37
2017-09-15T04:58:36.468Z,4.90
2017-09-15T05:01:04.461Z,12.73
2017-09-15T05:03:35.308Z,10.73
2017-09-15T05:06:03.275Z,7.80
2017-09-15T05:08:31.525Z,13.67
2017-09-15T05:10:59.502Z,8.23
2017-09-15T05:13:27.337Z,7.73
2017-09-15T05:15:55.789Z,5.47
2017-09-15T05:18:24.217Z,10.17
2017-09-15T05:20:52.790Z,11.30
2017-09-15T05:23:21.833Z,13.83
2017-09-15T05:25:50.011Z,8.93
2017-09-15T05:28:22.729Z,10.67
2017-09-15T05:30:51.386Z,11.27
2017-09-15T05:33:20.435Z,6.67
2017-09-15T05:35:48.669Z,9.70
2017-09-15T05:38:18.613Z,11.07
2017-09-15T05:40:47.373Z,10.53
2017-09-15T05:43:15.802Z,11.27
2017-09-15T05:45:44.901Z,11.93
2017-09-15T05:48:13.899Z,8.33
2017-09-15T05:50:41.616Z,11.43
2017-09-15T05:53:09.509Z,4.73
2017-09-15T05:55:37.997Z,6.03
2017-09-15T05:58:08.884Z,15.50
2017-09-15T06:00:37.414Z,7.57
2017-09-15T06:03:05.851Z,9.60
2017-09-15T06:05:33.655Z,5.23
2017-09-15T06:08:01.480Z,5.00
2017-09-15T06:10:30.147Z,6.30
2017-09-15T06:12:58.952Z,8.67
2017-09-15T06:15:27.163Z,3.80
2017-09-15T06:17:55.899Z,4.97
2017-09-15T06:20:25.542Z,7.47
2017-09-15T06:22:53.352Z,6.77
2017-09-15T06:25:21.092Z,7.00
2017-09-15T06:27:50.895Z,9.07
2017-09-15T06:30:20.146Z,11.60
2017-09-15T06:32:48.320Z,8.63
2017-09-15T06:35:17.483Z,5.70
2017-09-15T06:37:46.101Z,9.10
2017-09-15T06:40:14.055Z,10.13
2017-09-15T06:42:43.903Z,10.03
2017-09-15T06:45:12.456Z,4.00
2017-09-15T06:47:40.625Z,4.90
2017-09-15T06:50:09.914Z,3.97
2017-09-15T06:52:39.069Z,14.00
2017-09-15T06:55:13.098Z,4.10
2017-09-15T06:57:41.248Z,5.87
2017-09-15T07:00:09.382Z,14.80
2017-09-15T07:02:37.474Z,6.37
2017-09-15T07:05:06.331Z,5.23
2017-09-15T07:07:35.975Z,3.73
2017-09-15T07:10:03.669Z,6.00
2017-09-15T07:12:32.724Z,8.90
2017-09-15T07:15:00.452Z,8.60
2017-09-15T07:17:31.755Z,3.87
2017-09-15T07:19:59.819Z,7.70
2017-09-15T07:22:29.010Z,7.23
2017-09-15T07:24:57.580Z,8.43
2017-09-15T07:27:26.286Z,5.90
2017-09-15T07:29:55.907Z,4.50
2017-09-15T07:32:24.257Z,9.20
2017-09-15T07:34:53.116Z,2.40
2017-09-15T07:37:21.466Z,6.20
2017-09-15T07:39:50.530Z,4.93
2017-09-15T07:42:19.332Z,5.70
2017-09-15T07:44:47.817Z,7.97
2017-09-15T07:47:16.878Z,10.57
2017-09-15T07:49:45.964Z,4.10
2017-09-15T07:52:14.703Z,4.77
2017-09-15T07:54:43.156Z,11.80
2017-09-15T07:57:12.780Z,5.97
2017-09-15T07:59:46.982Z,5.80
2017-09-15T08:04:49.262Z,8.40
2017-09-15T08:07:17.062Z,5.00
2017-09-15T08:09:45.144Z,9.83
2017-09-15T08:12:13.249Z,5.87
2017-09-15T08:14:42.023Z,4.23
2017-09-15T08:17:11.448Z,5.60
2017-09-15T08:19:39.974Z,5.07
2017-09-15T08:22:08.706Z,7.00
2017-09-15T08:24:37.969Z,6.80
2017-09-15T08:29:39.154Z,7.90
2017-09-15T08:32:08.112Z,5.53
2017-09-15T08:34:37.720Z,6.53
2017-09-15T08:37:08.212Z,10.80
2017-09-15T08:39:37.167Z,8.60
2017-09-15T08:42:05.545Z,4.20
2017-09-15T08:44:33.327Z,5.93
2017-09-15T08:47:02.241Z,4.83
2017-09-15T08:49:30.529Z,9.57
2017-09-15T08:54:33.064Z,7.57
2017-09-15T08:57:02.334Z,3.07
2017-09-15T08:59:30.741Z,3.47
2017-09-15T09:02:00.318Z,5.17
2017-09-15T09:04:33.193Z,3.63
2017-09-15T09:07:01.843Z,3.77
2017-09-15T09:09:31.865Z,4.60
2017-09-15T09:12:03.103Z,12.17
2017-09-15T09:14:36.182Z,5.67
2017-09-15T09:17:05.009Z,5.87
2017-09-15T09:19:33.097Z,3.20
2017-09-15T09:22:03.034Z,4.83
2017-09-15T09:24:33.510Z,2.40
2017-09-15T09:27:03.419Z,3.17
2017-09-15T09:29:31.542Z,8.87
2017-09-15T09:32:00.416Z,4.17
2017-09-15T09:34:29.476Z,8.33
2017-09-15T09:36:57.843Z,3.83
2017-09-15T09:39:27.815Z,5.30
2017-09-15T09:41:57.104Z,4.93
2017-09-15T09:44:26.811Z,6.93
2017-09-15T09:46:54.810Z,10.40
2017-09-15T09:49:23.824Z,1.63
2017-09-15T09:51:53.482Z,3.50
2017-09-15T09:54:21.660Z,3.03
2017-09-15T09:56:51.618Z,3.40
2017-09-15T09:59:20.061Z,2.30
2017-09-15T10:01:49.543Z,3.73
2017-09-15T10:04:18.021Z,2.43
2017-09-15T10:09:18.726Z,6.93
2017-09-15T10:11:46.520Z,1.80
2017-09-15T10:14:17.800Z,3.53
2017-09-15T10:16:47.604Z,2.40
2017-09-15T10:19:16.519Z,3.07
2017-09-15T10:21:44.373Z,2.70
2017-09-15T10:24:12.099Z,2.30
2017-09-15T10:26:39.867Z,1.63
2017-09-15T10:29:07.587Z,2.00
2017-09-15T10:31:35.376Z,1.67
2017-09-15T10:34:03.163Z,2.50
2017-09-15T10:36:30.917Z,3.60
2017-09-15T10:38:58.624Z,1.40
2017-09-15T10:41:26.373Z,8.27
2017-09-15T10:43:54.099Z,1.60
2017-09-15T10:46:21.824Z,2.67
2017-09-15T10:48:49.562Z,3.83
2017-09-15T10:51:17.392Z,3.20
2017-09-15T10:53:45.121Z,4.93
2017-09-15T10:56:12.871Z,2.93
2017-09-15T10:58:40.603Z,1.67
2017-09-15T11:01:08.366Z,3.70
2017-09-15T11:03:36.091Z,1.43
2017-09-15T11:06:03.847Z,1.50
2017-09-15T11:08:31.593Z,3.90
2017-09-15T11:10:59.357Z,3.77
2017-09-15T11:13:27.368Z,4.47
2017-09-15T11:15:55.152Z,2.50
2017-09-15T11:18:22.860Z,4.07
2017-09-15T11:20:50.671Z,2.00
2017-09-15T11:23:18.388Z,2.00
2017-09-15T11:25:46.142Z,5.63
2017-09-15T11:28:13.856Z,7.90
2017-09-15T11:30:41.614Z,4.60
2017-09-15T11:33:09.349Z,5.33
2017-09-15T11:35:37.081Z,1.90
2017-09-15T11:38:04.801Z,3.37
2017-09-15T11:40:32.540Z,2.67
2017-09-15T11:43:00.332Z,3.20
2017-09-15T11:45:28.293Z,1.93
2017-09-15T11:47:56.106Z,6.00
2017-09-15T11:50:23.897Z,9.40
2017-09-15T11:52:51.658Z,2.80
2017-09-15T11:55:19.367Z,2.93
2017-09-15T11:57:47.064Z,4.00
2017-09-15T12:00:14.819Z,2.93
2017-09-15T12:02:42.546Z,2.43
2017-09-15T12:05:10.249Z,2.27
2017-09-15T12:07:38.032Z,1.30
2017-09-15T12:10:05.752Z,1.90
2017-09-15T12:12:33.488Z,1.30
2017-09-15T12:15:01.203Z,1.40
2017-09-15T12:17:28.966Z,1.40
2017-09-15T12:19:56.675Z,3.60
2017-09-15T12:22:24.473Z,2.30
2017-09-15T12:24:52.188Z,3.43
2017-09-15T12:27:19.975Z,1.83
2017-09-15T12:29:47.687Z,2.30
2017-09-15T12:32:15.463Z,1.87
2017-09-15T12:34:43.979Z,4.27
2017-09-15T12:37:11.667Z,5.10
2017-09-15T12:39:39.436Z,6.00
2017-09-15T12:42:07.241Z,2.20
2017-09-15T12:44:34.929Z,1.47
2017-09-15T12:47:02.889Z,3.33
2017-09-15T12:49:30.667Z,2.00
2017-09-15T12:51:58.471Z,2.20
2017-09-15T12:54:26.200Z,2.50
2017-09-15T12:56:53.887Z,6.27
2017-09-15T12:59:21.586Z,2.83
2017-09-15T13:01:49.261Z,2.07
2017-09-15T13:04:17.030Z,2.90
2017-09-15T13:06:44.805Z,2.43
2017-09-15T13:09:12.530Z,4.00
2017-09-15T13:11:40.300Z,5.10
2017-09-15T13:14:08.006Z,3.93
2017-09-15T13:16:35.746Z,3.77
2017-09-15T13:19:03.499Z,3.47
2017-09-15T13:21:31.208Z,3.17
2017-09-15T13:23:58.871Z,1.50
2017-09-15T13:26:26.578Z,1.90
2017-09-15T13:28:54.336Z,3.80
2017-09-15T13:31:22.074Z,3.23
2017-09-15T13:33:49.820Z,2.97
2017-09-15T13:36:17.462Z,1.50
2017-09-15T13:38:45.395Z,3.93
2017-09-15T13:41:13.005Z,2.70
2017-09-15T13:43:40.688Z,2.40
2017-09-15T13:46:08.401Z,3.60
2017-09-15T13:48:36.151Z,5.47
2017-09-15T13:51:03.873Z,4.03
2017-09-15T13:53:31.646Z,5.23
2017-09-15T13:55:59.367Z,3.10
2017-09-15T13:58:27.168Z,4.60
2017-09-15T14:00:54.943Z,3.90
2017-09-15T14:03:22.725Z,3.83
2017-09-15T14:05:50.404Z,5.37
2017-09-15T14:08:18.159Z,8.50
2017-09-15T14:10:45.893Z,5.83
2017-09-15T14:13:13.810Z,3.70
2017-09-15T14:15:41.551Z,4.83
2017-09-15T14:18:09.392Z,3.83
2017-09-15T14:20:37.138Z,10.03
2017-09-15T14:23:04.810Z,6.30
2017-09-15T14:25:32.528Z,6.17
2017-09-15T14:28:00.284Z,8.27
2017-09-15T14:30:27.917Z,4.60
2017-09-15T14:32:55.608Z,3.83
2017-09-15T14:35:24.388Z,5.27
2017-09-15T14:37:52.157Z,5.70
2017-09-15T14:40:19.880Z,4.53
2017-09-15T14:42:47.592Z,9.40
2017-09-15T14:45:15.332Z,4.00
2017-09-15T14:47:43.140Z,6.87
2017-09-15T14:50:10.865Z,4.00
2017-09-15T14:52:38.628Z,7.13
2017-09-15T14:55:06.260Z,7.73
2017-09-15T14:57:33.976Z,3.97
2017-09-15T15:00:01.758Z,3.53
2017-09-15T15:02:29.507Z,5.23
2017-09-15T15:04:57.281Z,3.70
2017-09-15T15:07:24.904Z,5.67
2017-09-15T15:09:52.681Z,5.93
2017-09-15T15:12:20.386Z,4.20
2017-09-15T15:14:48.159Z,3.97
2017-09-15T15:17:15.864Z,3.87
2017-09-15T15:19:43.643Z,7.43
2017-09-15T15:22:11.359Z,6.00
2017-09-15T15:24:39.097Z,3.90
2017-09-15T15:27:06.797Z,3.33
2017-09-15T15:29:34.566Z,5.20
2017-09-15T15:32:02.219Z,4.57
2017-09-15T15:34:30.030Z,4.63
2017-09-15T15:36:57.757Z,3.87
2017-09-15T15:39:25.520Z,5.13
2017-09-15T15:41:53.244Z,4.27
2017-09-15T15:44:21.021Z,4.00
2017-09-15T15:46:48.727Z,3.50
2017-09-15T15:49:16.468Z,7.57
2017-09-15T15:51:44.182Z,4.73
2017-09-15T15:54:11.937Z,8.37
2017-09-15T15:56:39.559Z,4.93
2017-09-15T15:59:07.300Z,6.53
2017-09-15T16:01:35.024Z,7.53
2017-09-15T16:04:02.807Z,6.70
2017-09-15T16:06:30.547Z,4.87
2017-09-15T16:08:58.332Z,4.37
2017-09-15T16:11:26.047Z,9.00
2017-09-15T16:13:53.798Z,11.50
2017-09-15T16:16:21.500Z,6.87
2017-09-15T16:18:49.669Z,11.47
2017-09-15T16:21:17.398Z,6.50
2017-09-15T16:23:45.183Z,5.63
2017-09-15T16:26:12.932Z,3.13
2017-09-15T16:28:40.710Z,2.20
2017-09-15T16:31:08.374Z,3.20
2017-09-15T16:33:36.137Z,3.00
2017-09-15T16:36:03.942Z,3.60
2017-09-15T16:38:31.788Z,2.67
2017-09-15T16:40:59.587Z,7.30
2017-09-15T16:43:27.361Z,3.47
2017-09-15T16:45:55.169Z,2.90
2017-09-15T16:48:22.904Z,4.73
2017-09-15T16:50:50.705Z,5.37
2017-09-15T16:53:18.434Z,13.73
2017-09-15T16:55:46.224Z,8.40
2017-09-15T16:58:13.970Z,3.73
2017-09-15T17:00:41.836Z,3.00
2017-09-15T17:03:09.589Z,3.20
2017-09-15T17:05:37.365Z,3.67
2017-09-15T17:08:05.110Z,8.70
2017-09-15T17:10:33.838Z,5.80
2017-09-15T17:13:01.705Z,6.47
2017-09-15T17:15:29.480Z,7.53
2017-09-15T17:17:57.191Z,8.53
2017-09-15T17:20:24.933Z,7.10
2017-09-15T17:22:52.656Z,9.00
2017-09-15T17:25:20.396Z,8.63
2017-09-15T17:27:48.112Z,8.07
2017-09-15T17:30:15.786Z,9.57
2017-09-15T17:32:43.545Z,6.53
2017-09-15T17:35:11.357Z,7.70
2017-09-15T17:37:39.073Z,6.93
2017-09-15T17:40:06.795Z,6.00
2017-09-15T17:42:34.516Z,5.93
2017-09-15T17:45:02.264Z,7.57
2017-09-15T17:47:29.977Z,5.37
2017-09-15T17:49:57.783Z,5.57
2017-09-15T17:52:25.490Z,5.50
2017-09-15T17:54:53.263Z,5.73
2017-09-15T17:57:20.950Z,5.87
2017-09-15T17:59:48.696Z,8.40
2017-09-15T18:02:16.405Z,6.00
2017-09-15T18:04:44.207Z,9.20
2017-09-15T18:07:11.892Z,6.07
2017-09-15T18:09:39.668Z,6.03
2017-09-15T18:12:07.379Z,8.00
2017-09-15T18:14:35.163Z,5.63
2017-09-15T18:17:02.864Z,4.80
2017-09-15T18:19:31.542Z,7.60
2017-09-15T18:21:59.293Z,7.93
2017-09-15T18:24:26.989Z,5.67
2017-09-15T18:26:54.773Z,6.57
2017-09-15T18:29:22.505Z,7.07
2017-09-15T18:31:50.291Z,4.90
2017-09-15T18:34:18.036Z,5.47
2017-09-15T18:36:45.711Z,4.87
2017-09-15T18:39:13.333Z,5.87
2017-09-15T18:41:41.100Z,7.33
2017-09-15T18:44:08.794Z,7.03
2017-09-15T18:46:36.561Z,7.80
2017-09-15T18:49:04.237Z,9.20
2017-09-15T18:51:32.008Z,6.97
2017-09-15T18:53:59.622Z,8.60
2017-09-15T18:56:27.389Z,6.73
2017-09-15T18:58:55.111Z,7.70
2017-09-15T19:01:22.927Z,6.97
2017-09-15T19:03:50.655Z,5.87
2017-09-15T19:06:18.465Z,8.80
2017-09-15T19:08:46.199Z,9.20
2017-09-15T19:11:13.970Z,6.97
2017-09-15T19:13:41.648Z,7.93
2017-09-15T19:16:09.367Z,10.80
2017-09-15T19:18:37.026Z,10.40
2017-09-15T19:21:04.790Z,10.90
2017-09-15T19:23:32.506Z,9.77
2017-09-15T19:26:00.297Z,13.27
2017-09-15T19:28:28.010Z,9.80
2017-09-15T19:30:55.762Z,8.37
2017-09-15T19:33:23.450Z,9.37
2017-09-15T19:35:51.266Z,10.43
2017-09-15T19:38:18.980Z,7.70
2017-09-15T19:40:46.751Z,10.03
2017-09-15T19:43:14.446Z,8.80
2017-09-15T19:45:42.213Z,12.20
2017-09-15T19:48:09.931Z,8.10
2017-09-15T19:50:38.576Z,7.80
2017-09-15T19:53:06.274Z,8.23
2017-09-15T19:55:34.034Z,7.40
2017-09-15T19:58:01.721Z,7.17
2017-09-15T20:00:29.504Z,6.90
2017-09-15T20:02:57.200Z,8.07
2017-09-15T20:05:24.908Z,6.50
2017-09-15T20:07:52.651Z,8.50
2017-09-15T20:10:20.350Z,10.30
2017-09-15T20:12:48.023Z,8.70
2017-09-15T20:15:15.753Z,6.20
2017-09-15T20:17:43.512Z,6.03
2017-09-15T20:20:11.239Z,6.03
2017-09-15T20:22:39.004Z,6.80
2017-09-15T20:25:06.732Z,6.30
2017-09-15T20:27:34.482Z,6.97
2017-09-15T20:30:02.182Z,6.83
2017-09-15T20:32:29.959Z,6.80
2017-09-15T20:34:57.698Z,5.93
2017-09-15T20:37:25.431Z,9.10
2017-09-15T20:39:53.097Z,5.80
2017-09-15T20:42:20.897Z,6.90
2017-09-15T20:44:48.577Z,4.50
2017-09-15T20:47:16.312Z,6.20
2017-09-15T20:49:43.995Z,8.10
2017-09-15T20:52:11.759Z,6.40
2017-09-15T20:54:39.463Z,8.27
2017-09-15T20:57:07.210Z,5.53
2017-09-15T20:59:34.918Z,10.17
2017-09-15T21:02:02.647Z,7.43
2017-09-15T21:04:30.331Z,10.87
2017-09-15T21:06:58.086Z,5.10
2017-09-15T21:09:25.794Z,6.50
2017-09-15T21:11:53.548Z,5.43
2017-09-15T21:14:21.245Z,8.27
2017-09-15T21:16:49.004Z,5.13
2017-09-15T21:19:16.725Z,9.03
2017-09-15T21:21:44.501Z,4.97
2017-09-15T21:24:12.198Z,4.57
2017-09-15T21:26:39.985Z,5.87
2017-09-15T21:29:07.675Z,5.30
2017-09-15T21:31:35.407Z,5.70
2017-09-15T21:34:03.131Z,6.37
2017-09-15T21:36:30.920Z,4.97
2017-09-15T21:38:58.635Z,5.87
2017-09-15T21:41:26.386Z,5.57
2017-09-15T21:43:54.013Z,4.50
2017-09-15T21:46:21.691Z,5.63
2017-09-15T21:48:49.410Z,6.43
2017-09-15T21:51:17.099Z,5.57
2017-09-15T21:53:44.826Z,5.30
2017-09-15T21:56:12.553Z,5.27
2017-09-15T21:58:40.271Z,4.73
2017-09-15T22:01:07.982Z,5.23
2017-09-15T22:03:35.725Z,5.30
2017-09-15T22:06:03.413Z,5.87
2017-09-15T22:08:31.150Z,5.00
2017-09-15T22:10:58.849Z,8.90
2017-09-15T22:13:26.589Z,5.77
2017-09-15T22:15:54.260Z,9.43
2017-09-15T22:18:21.986Z,5.63
2017-09-15T22:20:49.666Z,6.33
2017-09-15T22:23:17.433Z,10.27
2017-09-15T22:25:45.126Z,11.90
2017-09-15T22:28:12.891Z,5.37
2017-09-15T22:30:40.583Z,8.30
2017-09-15T22:33:08.341Z,7.17
2017-09-15T22:35:36.135Z,4.50
2017-09-15T22:38:03.904Z,5.00
2017-09-15T22:40:31.624Z,8.87
2017-09-15T22:42:59.380Z,7.43
2017-09-15T22:45:27.081Z,4.20
2017-09-15T22:47:54.811Z,4.47
2017-09-15T22:50:22.479Z,5.83
2017-09-15T22:52:50.264Z,10.87
2017-09-15T22:55:17.966Z,23.53
2017-09-15T22:57:45.704Z,6.27
2017-09-15T23:00:13.386Z,7.90
2017-09-15T23:02:41.125Z,6.57
2017-09-15T23:05:08.835Z,6.40
2017-09-15T23:07:36.570Z,7.93
2017-09-15T23:10:04.284Z,6.60
2017-09-15T23:12:32.014Z,7.10
2017-09-15T23:14:59.698Z,6.70
2017-09-15T23:17:27.419Z,9.03
2017-09-15T23:19:55.110Z,4.90
2017-09-15T23:22:22.872Z,10.80
2017-09-15T23:24:50.557Z,6.40
2017-09-15T23:27:18.444Z,5.23
2017-09-15T23:29:46.163Z,5.23
2017-09-15T23:32:13.851Z,4.43
2017-09-15T23:34:41.631Z,3.93
2017-09-15T23:37:09.316Z,5.40
2017-09-15T23:39:37.069Z,6.37
2017-09-15T23:42:04.756Z,4.43
2017-09-15T23:44:32.507Z,5.47
2017-09-15T23:47:00.195Z,6.70
2017-09-15T23:49:27.936Z,6.73
2017-09-15T23:51:55.645Z,5.93
2017-09-15T23:54:23.409Z,5.60
2017-09-15T23:56:51.130Z,5.70
2017-09-15T23:59:18.877Z,7.40
